createdAt,value
2018-02-22T00:01:49.282Z,36.63
2018-02-22T00:04:16.745Z,35.67
2018-02-22T00:06:44.170Z,36.08
2018-02-22T00:09:11.589Z,37.35
2018-02-22T00:11:39.010Z,39.03
2018-02-22T00:14:06.442Z,36.83
2018-02-22T00:16:33.849Z,37.45
2018-02-22T00:19:01.266Z,35.58
2018-02-22T00:21:28.698Z,36.30
2018-02-22T00:23:56.117Z,34.67
2018-02-22T00:26:23.554Z,36.20
2018-02-22T00:28:50.969Z,37.40
2018-02-22T00:31:18.394Z,34.05
2018-02-22T00:33:45.838Z,36.22
2018-02-22T00:36:13.298Z,36.25
2018-02-22T00:38:40.723Z,35.55
2018-02-22T00:41:08.145Z,34.20
2018-02-22T00:43:35.567Z,35.28
2018-02-22T00:46:02.984Z,34.97
2018-02-22T00:48:30.414Z,35.42
2018-02-22T00:50:57.830Z,36.30
2018-02-22T00:53:25.254Z,34.92
2018-02-22T00:55:52.698Z,37.67
2018-02-22T00:58:20.115Z,34.33
2018-02-22T01:00:47.540Z,37.22
2018-02-22T01:03:14.953Z,35.33
2018-02-22T01:05:42.379Z,35.10
2018-02-22T01:08:09.798Z,35.67
2018-02-22T01:10:37.218Z,35.65
2018-02-22T01:13:04.641Z,36.25
2018-02-22T01:15:32.066Z,34.58
2018-02-22T01:17:59.485Z,36.85
2018-02-22T01:20:26.901Z,36.75
2018-02-22T01:22:54.324Z,36.00
2018-02-22T01:25:21.755Z,35.05
2018-02-22T01:27:49.187Z,35.03
2018-02-22T01:30:16.604Z,34.63
2018-02-22T01:32:44.015Z,35.40
2018-02-22T01:35:11.451Z,36.97
2018-02-22T01:37:38.870Z,35.60
2018-02-22T01:40:06.281Z,37.30
2018-02-22T01:42:33.711Z,35.38
2018-02-22T01:45:01.139Z,36.75
2018-02-22T01:47:28.558Z,36.58
2018-02-22T01:49:55.973Z,36.63
2018-02-22T01:52:23.421Z,37.78
2018-02-22T01:54:50.843Z,38.63
2018-02-22T01:57:18.265Z,37.00
2018-02-22T01:59:45.692Z,37.75
2018-02-22T02:02:13.109Z,36.50
2018-02-22T02:04:40.574Z,37.95
2018-02-22T02:07:07.994Z,38.45
2018-02-22T02:09:35.417Z,37.15
2018-02-22T02:12:02.885Z,37.45
2018-02-22T02:14:30.299Z,37.30
2018-02-22T02:16:57.726Z,37.25
2018-02-22T02:19:25.168Z,34.65
2018-02-22T02:21:52.595Z,36.97
2018-02-22T02:24:20.015Z,36.97
2018-02-22T02:26:47.805Z,35.85
2018-02-22T02:29:15.218Z,37.70
2018-02-22T02:31:42.642Z,36.05
2018-02-22T02:34:10.067Z,36.33
2018-02-22T02:36:37.491Z,35.90
2018-02-22T02:39:04.924Z,35.38
2018-02-22T02:41:32.334Z,35.22
2018-02-22T02:43:59.767Z,33.38
2018-02-22T02:46:27.196Z,34.92
2018-02-22T02:48:54.626Z,32.58
2018-02-22T02:51:22.058Z,33.95
2018-02-22T02:53:49.476Z,32.72
2018-02-22T02:56:16.910Z,34.22
2018-02-22T02:58:44.414Z,33.50
2018-02-22T03:01:11.831Z,32.67
2018-02-22T03:03:39.255Z,31.73
2018-02-22T03:06:06.675Z,31.30
2018-02-22T03:08:34.102Z,31.52
2018-02-22T03:11:01.522Z,30.23
2018-02-22T03:13:28.940Z,32.35
2018-02-22T03:15:56.361Z,30.75
2018-02-22T03:18:23.778Z,31.50
2018-02-22T03:20:51.217Z,30.60
2018-02-22T03:23:18.643Z,31.20
2018-02-22T03:25:46.061Z,31.45
2018-02-22T03:28:13.486Z,29.75
2018-02-22T03:30:40.911Z,31.00
2018-02-22T03:33:08.609Z,30.58
2018-02-22T03:35:36.041Z,29.83
2018-02-22T03:38:03.454Z,31.08
2018-02-22T03:40:30.873Z,30.90
2018-02-22T03:42:58.293Z,32.72
2018-02-22T03:45:25.727Z,31.37
2018-02-22T03:47:53.156Z,29.60
2018-02-22T03:50:20.589Z,28.58
2018-02-22T03:52:48.006Z,28.55
2018-02-22T03:55:15.427Z,30.27
2018-02-22T03:57:42.861Z,28.40
2018-02-22T04:00:10.278Z,27.00
2018-02-22T04:02:37.693Z,30.40
2018-02-22T04:05:05.118Z,30.12
2018-02-22T04:07:32.538Z,29.35
2018-02-22T04:09:59.959Z,31.35
2018-02-22T04:12:27.379Z,30.62
2018-02-22T04:14:54.796Z,29.77
2018-02-22T04:17:22.225Z,29.70
2018-02-22T04:19:49.686Z,29.87
2018-02-22T04:22:17.109Z,27.87
2018-02-22T04:24:44.532Z,29.98
2018-02-22T04:27:11.947Z,27.98
2018-02-22T04:29:39.378Z,28.77
2018-02-22T04:32:06.793Z,29.77
2018-02-22T04:34:34.222Z,29.00
2018-02-22T04:37:01.638Z,27.23
2018-02-22T04:39:29.058Z,28.20
2018-02-22T04:41:56.769Z,27.58
2018-02-22T04:44:24.190Z,27.60
2018-02-22T04:46:51.634Z,26.37
2018-02-22T04:49:19.910Z,27.80
2018-02-22T04:51:47.329Z,27.10
2018-02-22T04:54:14.762Z,27.02
2018-02-22T04:56:42.200Z,27.08
2018-02-22T04:59:09.979Z,27.52
2018-02-22T05:01:37.395Z,25.65
2018-02-22T05:04:04.810Z,26.83
2018-02-22T05:06:32.229Z,24.52
2018-02-22T05:08:59.678Z,24.50
2018-02-22T05:11:27.108Z,24.90
2018-02-22T05:13:54.523Z,25.23
2018-02-22T05:16:21.970Z,25.52
2018-02-22T05:18:49.406Z,25.50
2018-02-22T05:21:16.814Z,27.48
2018-02-22T05:23:44.242Z,26.35
2018-02-22T05:26:11.675Z,24.80
2018-02-22T05:28:39.081Z,25.92
2018-02-22T05:31:06.510Z,24.15
2018-02-22T05:33:33.938Z,24.80
2018-02-22T05:36:01.362Z,24.73
2018-02-22T05:38:28.801Z,24.35
2018-02-22T05:40:56.213Z,25.02
2018-02-22T05:43:23.643Z,24.27
2018-02-22T05:45:51.078Z,24.42
2018-02-22T05:48:18.530Z,24.42
2018-02-22T05:50:45.953Z,23.50
2018-02-22T05:53:13.370Z,24.48
2018-02-22T05:55:40.801Z,23.80
2018-02-22T05:58:08.218Z,23.10
2018-02-22T06:00:35.642Z,24.90
2018-02-22T06:03:03.058Z,24.52
2018-02-22T06:05:30.486Z,23.85
2018-02-22T06:07:57.914Z,23.08
2018-02-22T06:10:25.358Z,23.08
2018-02-22T06:12:52.783Z,24.05
2018-02-22T06:15:20.220Z,22.73
2018-02-22T06:17:48.023Z,23.87
2018-02-22T06:20:15.447Z,22.98
2018-02-22T06:22:42.865Z,23.70
2018-02-22T06:25:10.298Z,23.00
2018-02-22T06:27:37.714Z,22.02
2018-02-22T06:30:05.154Z,21.02
2018-02-22T06:32:32.566Z,22.33
2018-02-22T06:35:00.022Z,21.85
2018-02-22T06:37:27.458Z,22.02
2018-02-22T06:39:54.911Z,23.17
2018-02-22T06:42:22.340Z,21.30
2018-02-22T06:44:49.758Z,22.37
2018-02-22T06:47:17.206Z,22.45
2018-02-22T06:49:44.673Z,23.42
2018-02-22T06:52:12.176Z,22.67
2018-02-22T06:54:39.634Z,22.73
2018-02-22T06:57:07.066Z,22.23
2018-02-22T06:59:34.510Z,21.83
2018-02-22T07:02:01.978Z,22.23
2018-02-22T07:04:29.419Z,22.10
2018-02-22T07:06:56.878Z,22.00
2018-02-22T07:09:24.289Z,20.80
2018-02-22T07:11:51.755Z,19.80
2018-02-22T07:14:19.204Z,21.67
2018-02-22T07:16:46.700Z,22.25
2018-02-22T07:19:14.321Z,21.62
2018-02-22T07:21:41.765Z,22.00
2018-02-22T07:24:09.234Z,21.95
2018-02-22T07:26:36.677Z,21.45
2018-02-22T07:29:04.092Z,20.20
2018-02-22T07:31:31.522Z,21.20
2018-02-22T07:33:58.962Z,20.98
2018-02-22T07:36:26.398Z,20.25
2018-02-22T07:38:53.834Z,22.20
2018-02-22T07:41:21.274Z,20.10
2018-02-22T07:43:48.711Z,21.30
2018-02-22T07:46:16.137Z,21.62
2018-02-22T07:48:43.574Z,21.27
2018-02-22T07:51:11.049Z,20.48
2018-02-22T07:53:38.480Z,20.65
2018-02-22T07:56:05.912Z,19.45
2018-02-22T07:58:33.338Z,21.37
2018-02-22T08:01:00.796Z,20.80
2018-02-22T08:03:28.292Z,19.45
2018-02-22T08:05:56.174Z,20.23
2018-02-22T08:08:23.597Z,21.40
2018-02-22T08:10:51.033Z,19.90
2018-02-22T08:13:18.505Z,19.67
2018-02-22T08:15:45.962Z,19.42
2018-02-22T08:18:13.834Z,19.80
2018-02-22T08:20:41.309Z,19.85
2018-02-22T08:23:08.746Z,19.48
2018-02-22T08:25:36.154Z,18.77
2018-02-22T08:28:03.584Z,18.25
2018-02-22T08:30:31.314Z,18.85
2018-02-22T08:32:58.730Z,19.25
2018-02-22T08:35:26.155Z,18.02
2018-02-22T08:37:53.601Z,18.92
2018-02-22T08:40:21.054Z,18.37
2018-02-22T08:42:48.578Z,19.98
2018-02-22T08:45:15.994Z,18.83
2018-02-22T08:47:43.423Z,18.92
2018-02-22T08:50:10.881Z,18.10
2018-02-22T08:52:38.340Z,19.58
2018-02-22T08:55:06.115Z,18.65
2018-02-22T08:57:33.534Z,19.75
2018-02-22T09:00:00.958Z,18.52
2018-02-22T09:02:28.410Z,18.17
2018-02-22T09:04:55.832Z,18.17
2018-02-22T09:07:23.564Z,18.27
2018-02-22T09:09:50.983Z,17.83
2018-02-22T09:12:18.402Z,18.15
2018-02-22T09:14:45.869Z,19.05
2018-02-22T09:17:13.283Z,17.95
2018-02-22T09:19:40.721Z,17.98
2018-02-22T09:22:08.153Z,20.12
2018-02-22T09:24:35.570Z,17.80
2018-02-22T09:27:03.034Z,18.58
2018-02-22T09:29:30.474Z,18.60
2018-02-22T09:31:57.933Z,17.85
2018-02-22T09:34:25.342Z,19.70
2018-02-22T09:36:52.760Z,17.10
2018-02-22T09:39:20.212Z,17.80
2018-02-22T09:41:47.647Z,18.27
2018-02-22T09:44:15.093Z,17.75
2018-02-22T09:46:42.519Z,19.00
2018-02-22T09:49:09.934Z,18.98
2018-02-22T09:51:37.386Z,18.12
2018-02-22T09:54:04.798Z,19.73
2018-02-22T09:56:32.223Z,19.40
2018-02-22T09:58:59.630Z,18.67
2018-02-22T10:01:27.049Z,18.03
2018-02-22T10:03:54.466Z,18.67
2018-02-22T10:06:21.872Z,19.23
2018-02-22T10:08:49.290Z,19.90
2018-02-22T10:11:16.709Z,18.57
2018-02-22T10:13:44.126Z,20.50
2018-02-22T10:16:11.542Z,19.60
2018-02-22T10:18:38.953Z,20.50
2018-02-22T10:21:06.462Z,19.83
2018-02-22T10:23:33.870Z,19.90
2018-02-22T10:26:01.281Z,19.30
2018-02-22T10:28:28.757Z,19.10
2018-02-22T10:30:56.127Z,19.37
2018-02-22T10:33:23.546Z,18.30
2018-02-22T10:35:50.969Z,19.30
2018-02-22T10:38:18.377Z,20.30
2018-02-22T10:40:45.794Z,19.87
2018-02-22T10:43:13.206Z,19.67
2018-02-22T10:45:40.638Z,18.90
2018-02-22T10:48:08.042Z,20.87
2018-02-22T10:50:35.455Z,19.77
2018-02-22T10:53:02.872Z,20.20
2018-02-22T10:55:30.277Z,20.80
2018-02-22T10:57:57.701Z,18.03
2018-02-22T11:00:30.594Z,18.53
2018-02-22T11:02:58.026Z,17.73
2018-02-22T11:05:25.438Z,18.33
2018-02-22T11:07:52.866Z,18.07
2018-02-22T11:10:20.284Z,17.47
2018-02-22T11:12:47.698Z,19.40
2018-02-22T11:15:15.128Z,18.00
2018-02-22T11:17:42.556Z,17.67
2018-02-22T11:20:09.966Z,17.30
2018-02-22T11:22:37.377Z,17.53
2018-02-22T11:25:04.793Z,17.63
2018-02-22T11:27:32.219Z,17.63
2018-02-22T11:29:59.634Z,17.77
2018-02-22T11:32:27.042Z,18.00
2018-02-22T11:34:54.458Z,17.67
2018-02-22T11:37:21.870Z,17.67
2018-02-22T11:39:49.289Z,18.37
2018-02-22T11:42:16.701Z,16.40
2018-02-22T11:44:44.123Z,16.80
2018-02-22T11:47:11.553Z,16.63
2018-02-22T11:49:38.966Z,17.60
2018-02-22T11:52:06.385Z,16.63
2018-02-22T11:54:33.804Z,16.97
2018-02-22T11:57:01.210Z,17.50
2018-02-22T11:59:28.633Z,16.90
2018-02-22T12:01:56.038Z,16.60
2018-02-22T12:04:23.465Z,16.47
2018-02-22T12:06:50.882Z,15.67
2018-02-22T12:09:18.297Z,15.80
2018-02-22T12:11:45.733Z,16.30
2018-02-22T12:14:13.163Z,15.17
2018-02-22T12:16:40.578Z,15.03
2018-02-22T12:19:07.986Z,15.37
2018-02-22T12:21:35.398Z,15.77
2018-02-22T12:24:02.810Z,16.03
2018-02-22T12:26:30.232Z,15.30
2018-02-22T12:28:57.657Z,16.37
2018-02-22T12:31:25.074Z,15.90
2018-02-22T12:33:52.522Z,15.00
2018-02-22T12:36:19.926Z,15.10
2018-02-22T12:38:47.341Z,15.67
2018-02-22T12:41:14.768Z,15.23
2018-02-22T12:43:42.182Z,16.20
2018-02-22T12:46:09.602Z,15.80
2018-02-22T12:48:37.063Z,15.20
2018-02-22T12:51:04.469Z,16.47
2018-02-22T12:53:31.894Z,16.30
2018-02-22T12:55:59.301Z,15.90
2018-02-22T12:58:26.725Z,15.13
2018-02-22T13:00:54.142Z,14.87
2018-02-22T13:03:21.574Z,17.97
2018-02-22T13:05:48.991Z,15.23
2018-02-22T13:08:16.399Z,14.70
2018-02-22T13:10:43.805Z,14.10
2018-02-22T13:13:11.230Z,14.40
2018-02-22T13:15:38.646Z,14.77
2018-02-22T13:18:06.075Z,14.30
2018-02-22T13:20:33.498Z,14.27
2018-02-22T13:23:00.919Z,15.23
2018-02-22T13:25:28.337Z,14.50
2018-02-22T13:27:55.750Z,17.07
2018-02-22T13:30:23.526Z,13.70
2018-02-22T13:33:02.582Z,14.00
2018-02-22T13:35:30.003Z,14.20
2018-02-22T13:38:17.974Z,13.50
2018-02-22T13:40:45.393Z,13.60
2018-02-22T13:43:12.807Z,13.63
2018-02-22T13:45:40.224Z,15.40
2018-02-22T13:48:07.634Z,14.77
2018-02-22T13:50:46.878Z,13.47
2018-02-22T13:53:14.290Z,13.50
2018-02-22T13:55:41.713Z,14.30
2018-02-22T13:58:09.123Z,14.27
2018-02-22T14:00:48.382Z,14.97
2018-02-22T14:03:15.818Z,13.43
2018-02-22T14:05:43.230Z,14.13
2018-02-22T14:08:10.642Z,13.40
2018-02-22T14:10:38.057Z,13.37
2018-02-22T14:13:05.469Z,14.07
2018-02-22T14:15:33.162Z,13.53
2018-02-22T14:18:00.581Z,13.10
2018-02-22T14:20:27.985Z,14.67
2018-02-22T14:22:55.410Z,14.03
2018-02-22T14:25:22.838Z,13.00
2018-02-22T14:27:50.281Z,14.70
2018-02-22T14:30:17.722Z,14.03
2018-02-22T14:32:45.133Z,14.70
2018-02-22T14:35:12.550Z,15.23
2018-02-22T14:37:39.966Z,13.03
2018-02-22T14:40:07.390Z,14.83
2018-02-22T14:42:34.798Z,15.20
2018-02-22T14:45:02.219Z,13.50
2018-02-22T14:47:29.638Z,15.53
2018-02-22T14:49:57.058Z,16.23
2018-02-22T14:52:24.499Z,14.73
2018-02-22T14:54:51.917Z,15.83
2018-02-22T14:57:19.334Z,14.43
2018-02-22T14:59:46.741Z,14.17
2018-02-22T15:02:19.869Z,14.63
2018-02-22T15:04:47.297Z,15.83
2018-02-22T15:07:15.311Z,15.80
2018-02-22T15:09:42.717Z,15.33
2018-02-22T15:12:10.151Z,16.00
2018-02-22T15:14:37.566Z,15.73
2018-02-22T15:17:04.991Z,15.30
2018-02-22T15:19:32.405Z,14.83
2018-02-22T15:21:59.817Z,15.80
2018-02-22T15:24:27.245Z,15.37
2018-02-22T15:26:54.653Z,15.00
2018-02-22T15:29:22.066Z,14.93
2018-02-22T15:31:49.481Z,15.20
2018-02-22T15:34:16.890Z,15.30
2018-02-22T15:36:44.297Z,15.07
2018-02-22T15:39:11.727Z,15.43
2018-02-22T15:41:39.133Z,14.80
2018-02-22T15:44:06.579Z,14.50
2018-02-22T15:46:33.986Z,14.93
2018-02-22T15:49:01.414Z,15.40
2018-02-22T15:51:28.833Z,14.80
2018-02-22T15:53:56.255Z,14.10
2018-02-22T15:56:23.704Z,14.20
2018-02-22T15:58:51.106Z,15.93
2018-02-22T16:01:18.546Z,14.80
2018-02-22T16:03:45.974Z,15.30
2018-02-22T16:06:13.390Z,15.43
2018-02-22T16:08:40.826Z,15.10
2018-02-22T16:11:08.270Z,16.07
2018-02-22T16:13:35.694Z,16.00
2018-02-22T16:16:03.116Z,16.10
2018-02-22T16:18:30.567Z,15.00
2018-02-22T16:20:57.982Z,15.83
2018-02-22T16:23:25.434Z,14.87
2018-02-22T16:25:52.877Z,15.85
2018-02-22T16:28:20.310Z,14.13
2018-02-22T16:30:47.742Z,15.65
2018-02-22T16:33:15.216Z,15.10
2018-02-22T16:35:42.647Z,14.52
2018-02-22T16:38:10.093Z,14.55
2018-02-22T16:40:37.549Z,14.85
2018-02-22T16:43:04.972Z,14.68
2018-02-22T16:45:32.419Z,15.20
2018-02-22T16:47:59.834Z,14.80
2018-02-22T16:50:27.289Z,14.32
2018-02-22T16:52:54.714Z,15.00
2018-02-22T16:55:22.170Z,14.35
2018-02-22T16:57:49.927Z,14.23
2018-02-22T17:00:17.348Z,14.10
2018-02-22T17:02:44.777Z,14.95
2018-02-22T17:05:12.235Z,13.90
2018-02-22T17:07:39.647Z,15.18
2018-02-22T17:10:07.430Z,15.10
2018-02-22T17:12:34.882Z,16.55
2018-02-22T17:15:02.318Z,15.93
2018-02-22T17:17:41.808Z,16.10
2018-02-22T17:20:09.266Z,15.63
2018-02-22T17:22:36.867Z,15.95
2018-02-22T17:25:04.300Z,16.15
2018-02-22T17:27:37.126Z,15.95
2018-02-22T17:30:10.060Z,15.90
2018-02-22T17:32:36.951Z,16.05
2018-02-22T17:35:04.391Z,15.10
2018-02-22T17:40:46.734Z,17.25
2018-02-22T17:43:14.163Z,18.75
2018-02-22T17:45:41.594Z,18.33
2018-02-22T17:48:09.929Z,19.27
2018-02-22T17:50:37.357Z,18.95
2018-02-22T17:53:04.902Z,21.90
2018-02-22T17:55:32.394Z,21.10
2018-02-22T17:57:59.812Z,22.87
2018-02-22T18:00:27.241Z,21.40
2018-02-22T18:02:54.689Z,22.60
2018-02-22T18:05:22.127Z,22.15
2018-02-22T18:07:49.554Z,22.65
2018-02-22T18:10:16.981Z,22.13
2018-02-22T18:12:44.452Z,23.80
2018-02-22T18:15:11.838Z,22.60
2018-02-22T18:17:39.267Z,23.00
2018-02-22T18:20:06.702Z,22.40
2018-02-22T18:22:34.220Z,22.10
2018-02-22T18:25:01.676Z,21.20
2018-02-22T18:27:29.119Z,22.35
2018-02-22T18:29:56.554Z,23.98
2018-02-22T18:32:24.034Z,24.02
2018-02-22T18:34:51.447Z,23.12
2018-02-22T18:37:24.495Z,24.30
2018-02-22T18:39:51.930Z,23.83
2018-02-22T18:42:21.145Z,23.60
2018-02-22T18:44:54.150Z,24.40
2018-02-22T18:47:21.588Z,25.17
2018-02-22T18:49:49.021Z,24.98
2018-02-22T18:52:16.458Z,24.77
2018-02-22T18:54:43.928Z,23.70
2018-02-22T18:57:11.299Z,24.08
2018-02-22T18:59:38.714Z,25.85
2018-02-22T19:02:06.142Z,24.87
2018-02-22T19:04:33.553Z,26.12
2018-02-22T19:07:00.971Z,25.55
2018-02-22T19:09:28.410Z,26.10
2018-02-22T19:11:55.841Z,25.50
2018-02-22T19:14:23.554Z,25.83
2018-02-22T19:16:50.984Z,24.92
2018-02-22T19:19:18.401Z,26.25
2018-02-22T19:21:45.835Z,24.00
2018-02-22T19:24:13.262Z,24.00
2018-02-22T19:26:40.714Z,26.37
2018-02-22T19:29:08.142Z,24.73
2018-02-22T19:31:35.566Z,24.45
2018-02-22T19:34:02.989Z,25.88
2018-02-22T19:36:30.410Z,25.55
2018-02-22T19:38:57.850Z,24.65
2018-02-22T19:41:25.266Z,23.92
2018-02-22T19:43:52.691Z,24.45
2018-02-22T19:46:20.126Z,24.10
2018-02-22T19:48:47.542Z,25.88
2018-02-22T19:51:14.978Z,23.17
2018-02-22T19:53:42.398Z,23.90
2018-02-22T19:56:09.815Z,25.02
2018-02-22T19:58:37.245Z,24.10
2018-02-22T20:01:04.662Z,24.08
2018-02-22T20:03:32.086Z,23.80
2018-02-22T20:05:59.522Z,23.90
2018-02-22T20:08:26.931Z,24.35
2018-02-22T20:10:54.358Z,23.80
2018-02-22T20:13:21.783Z,23.98
2018-02-22T20:15:49.206Z,24.52
2018-02-22T20:18:16.627Z,24.12
2018-02-22T20:20:44.045Z,23.67
2018-02-22T20:23:11.468Z,23.55
2018-02-22T20:25:38.890Z,25.88
2018-02-22T20:28:06.298Z,23.35
2018-02-22T20:30:33.741Z,24.37
2018-02-22T20:33:01.157Z,25.55
2018-02-22T20:35:28.578Z,25.17
2018-02-22T20:37:55.997Z,23.08
2018-02-22T20:40:23.409Z,23.98
2018-02-22T20:42:50.855Z,24.15
2018-02-22T20:45:18.262Z,22.90
2018-02-22T20:47:45.687Z,23.45
2018-02-22T20:50:13.122Z,23.98
2018-02-22T20:52:41.465Z,23.12
2018-02-22T20:55:18.806Z,23.12
2018-02-22T20:57:46.235Z,23.15
2018-02-22T21:00:13.654Z,22.95
2018-02-22T21:02:41.071Z,23.30
2018-02-22T21:05:08.486Z,23.62
2018-02-22T21:07:35.910Z,23.33
2018-02-22T21:10:03.326Z,22.83
2018-02-22T21:12:31.089Z,22.05
2018-02-22T21:14:58.513Z,22.25
2018-02-22T21:17:25.921Z,21.60
2018-02-22T21:19:53.351Z,21.52
2018-02-22T21:22:20.786Z,21.02
2018-02-22T21:24:48.208Z,22.35
2018-02-22T21:27:15.954Z,20.40
2018-02-22T21:29:43.374Z,22.73
2018-02-22T21:32:10.804Z,22.15
2018-02-22T21:34:38.254Z,20.20
2018-02-22T21:37:05.683Z,20.95
2018-02-22T21:39:33.092Z,20.90
2018-02-22T21:42:00.506Z,21.83
2018-02-22T21:44:27.931Z,21.90
2018-02-22T21:46:55.350Z,20.52
2018-02-22T21:49:22.782Z,20.02
2018-02-22T21:51:50.198Z,21.08
2018-02-22T21:54:17.649Z,20.90
2018-02-22T21:57:05.599Z,20.00
2018-02-22T21:59:33.019Z,20.90
2018-02-22T22:02:00.500Z,22.15
2018-02-22T22:04:27.936Z,19.42
2018-02-22T22:06:55.363Z,20.62
2018-02-22T22:09:22.778Z,20.58
2018-02-22T22:11:50.199Z,20.90
2018-02-22T22:14:17.625Z,20.80
2018-02-22T22:16:45.053Z,21.90
2018-02-22T22:19:12.466Z,20.23
2018-02-22T22:21:39.890Z,21.15
2018-02-22T22:24:07.313Z,19.85
2018-02-22T22:26:34.734Z,19.67
2018-02-22T22:29:02.162Z,21.02
2018-02-22T22:31:29.583Z,19.60
2018-02-22T22:33:57.018Z,19.95
2018-02-22T22:36:24.430Z,20.33
2018-02-22T22:38:52.323Z,18.40
2018-02-22T22:41:19.741Z,19.90
2018-02-22T22:43:47.157Z,20.25
2018-02-22T22:46:14.590Z,19.73
2018-02-22T22:48:42.002Z,19.20
2018-02-22T22:51:09.761Z,19.40
2018-02-22T22:53:37.177Z,18.65
2018-02-22T22:56:04.597Z,19.52
2018-02-22T22:58:32.029Z,19.65
2018-02-22T23:00:59.450Z,18.58
2018-02-22T23:03:26.884Z,18.30
2018-02-22T23:05:54.301Z,18.95
2018-02-22T23:08:21.719Z,18.30
2018-02-22T23:10:49.141Z,18.58
2018-02-22T23:13:16.564Z,18.37
2018-02-22T23:15:43.994Z,17.40
2018-02-22T23:18:11.414Z,19.62
2018-02-22T23:20:38.837Z,18.02
2018-02-22T23:23:06.257Z,18.48
2018-02-22T23:25:33.678Z,18.08
2018-02-22T23:28:01.115Z,17.55
2018-02-22T23:30:28.533Z,17.85
2018-02-22T23:32:55.954Z,17.95
2018-02-22T23:35:23.392Z,17.12
2018-02-22T23:37:50.809Z,18.40
2018-02-22T23:43:18.328Z,18.85
2018-02-22T23:45:45.755Z,17.27
2018-02-22T23:48:13.178Z,18.15
2018-02-22T23:50:40.591Z,18.15
2018-02-22T23:53:08.015Z,18.67
2018-02-22T23:55:35.437Z,18.17
2018-02-22T23:58:02.859Z,17.23
